sensor_id;sensor_type;location;lat;lon;timestamp;temperature;humidity
43810;DHT22;29440;48.208;11.162;2023-10-13T00:01:05;17.90;91.90
43810;DHT22;29440;48.208;11.162;2023-10-13T00:03:32;17.90;91.70
43810;DHT22;29440;48.208;11.162;2023-10-13T00:05:58;17.90;91.90
43810;DHT22;29440;48.208;11.162;2023-10-13T00:08:46;17.90;91.70
43810;DHT22;29440;48.208;11.162;2023-10-13T00:11:31;17.90;91.90
43810;DHT22;29440;48.208;11.162;2023-10-13T00:13:56;17.90;92.00
43810;DHT22;29440;48.208;11.162;2023-10-13T00:16:23;17.80;91.80
43810;DHT22;29440;48.208;11.162;2023-10-13T00:18:53;17.80;92.00
43810;DHT22;29440;48.208;11.162;2023-10-13T00:21:23;17.80;91.60
43810;DHT22;29440;48.208;11.162;2023-10-13T00:23:59;17.80;91.60
43810;DHT22;29440;48.208;11.162;2023-10-13T00:26:32;17.80;91.50
43810;DHT22;29440;48.208;11.162;2023-10-13T00:29:02;17.80;91.40
43810;DHT22;29440;48.208;11.162;2023-10-13T00:31:41;17.80;91.40
43810;DHT22;29440;48.208;11.162;2023-10-13T00:34:09;17.80;91.30
43810;DHT22;29440;48.208;11.162;2023-10-13T00:36:54;17.80;91.30
43810;DHT22;29440;48.208;11.162;2023-10-13T00:39:41;17.80;91.20
43810;DHT22;29440;48.208;11.162;2023-10-13T00:42:09;17.80;91.30
43810;DHT22;29440;48.208;11.162;2023-10-13T00:44:44;17.80;91.20
43810;DHT22;29440;48.208;11.162;2023-10-13T00:47:15;17.70;91.30
43810;DHT22;29440;48.208;11.162;2023-10-13T00:49:46;17.70;91.20
43810;DHT22;29440;48.208;11.162;2023-10-13T00:52:14;17.70;91.10
43810;DHT22;29440;48.208;11.162;2023-10-13T00:54:42;17.70;91.20
43810;DHT22;29440;48.208;11.162;2023-10-13T00:57:19;17.60;91.10
43810;DHT22;29440;48.208;11.162;2023-10-13T00:59:58;17.50;91.10
43810;DHT22;29440;48.208;11.162;2023-10-13T01:02:24;17.50;91.10
43810;DHT22;29440;48.208;11.162;2023-10-13T01:05:03;17.60;91.10
43810;DHT22;29440;48.208;11.162;2023-10-13T01:07:29;17.50;91.10
43810;DHT22;29440;48.208;11.162;2023-10-13T01:09:54;17.50;91.10
43810;DHT22;29440;48.208;11.162;2023-10-13T01:12:20;17.50;91.10
43810;DHT22;29440;48.208;11.162;2023-10-13T01:14:49;17.50;91.10
43810;DHT22;29440;48.208;11.162;2023-10-13T01:17:14;17.50;91.20
43810;DHT22;29440;48.208;11.162;2023-10-13T01:19:40;17.50;91.20
43810;DHT22;29440;48.208;11.162;2023-10-13T01:22:09;17.50;91.30
43810;DHT22;29440;48.208;11.162;2023-10-13T01:24:35;17.50;91.30
43810;DHT22;29440;48.208;11.162;2023-10-13T01:27:01;17.50;91.30
43810;DHT22;29440;48.208;11.162;2023-10-13T01:29:48;17.50;91.50
43810;DHT22;29440;48.208;11.162;2023-10-13T01:32:19;17.50;91.50
43810;DHT22;29440;48.208;11.162;2023-10-13T01:34:44;17.40;91.20
43810;DHT22;29440;48.208;11.162;2023-10-13T01:37:12;17.40;91.50
43810;DHT22;29440;48.208;11.162;2023-10-13T01:39:38;17.40;91.50
43810;DHT22;29440;48.208;11.162;2023-10-13T01:42:03;17.30;91.20
43810;DHT22;29440;48.208;11.162;2023-10-13T01:44:29;17.20;91.30
43810;DHT22;29440;48.208;11.162;2023-10-13T01:46:56;17.20;91.30
43810;DHT22;29440;48.208;11.162;2023-10-13T01:49:27;17.30;91.50
43810;DHT22;29440;48.208;11.162;2023-10-13T01:51:53;17.20;91.50
43810;DHT22;29440;48.208;11.162;2023-10-13T01:54:19;17.20;91.40
43810;DHT22;29440;48.208;11.162;2023-10-13T01:56:46;17.10;91.50
43810;DHT22;29440;48.208;11.162;2023-10-13T01:59:14;17.10;91.60
43810;DHT22;29440;48.208;11.162;2023-10-13T02:01:40;17.10;91.60
43810;DHT22;29440;48.208;11.162;2023-10-13T02:04:08;17.00;91.50
43810;DHT22;29440;48.208;11.162;2023-10-13T02:06:36;17.00;91.60
43810;DHT22;29440;48.208;11.162;2023-10-13T02:09:07;17.00;91.70
43810;DHT22;29440;48.208;11.162;2023-10-13T02:11:43;17.00;92.00
43810;DHT22;29440;48.208;11.162;2023-10-13T02:14:11;16.90;92.00
43810;DHT22;29440;48.208;11.162;2023-10-13T02:16:38;16.90;92.00
43810;DHT22;29440;48.208;11.162;2023-10-13T02:19:04;16.90;92.00
43810;DHT22;29440;48.208;11.162;2023-10-13T02:21:33;16.80;92.20
43810;DHT22;29440;48.208;11.162;2023-10-13T02:24:07;16.70;92.30
43810;DHT22;29440;48.208;11.162;2023-10-13T02:26:40;16.70;92.00
43810;DHT22;29440;48.208;11.162;2023-10-13T02:29:05;16.60;92.30
43810;DHT22;29440;48.208;11.162;2023-10-13T02:31:38;16.50;92.30
43810;DHT22;29440;48.208;11.162;2023-10-13T02:34:04;16.50;92.30
43810;DHT22;29440;48.208;11.162;2023-10-13T02:36:37;16.50;92.90
43810;DHT22;29440;48.208;11.162;2023-10-13T02:39:14;16.50;92.90
43810;DHT22;29440;48.208;11.162;2023-10-13T02:41:41;16.40;92.70
43810;DHT22;29440;48.208;11.162;2023-10-13T02:44:13;16.40;92.40
43810;DHT22;29440;48.208;11.162;2023-10-13T02:46:46;16.30;92.50
43810;DHT22;29440;48.208;11.162;2023-10-13T02:49:15;16.30;92.90
43810;DHT22;29440;48.208;11.162;2023-10-13T02:51:45;16.30;92.70
43810;DHT22;29440;48.208;11.162;2023-10-13T02:54:11;16.30;92.40
43810;DHT22;29440;48.208;11.162;2023-10-13T02:56:46;16.20;92.30
43810;DHT22;29440;48.208;11.162;2023-10-13T02:59:28;16.20;92.40
43810;DHT22;29440;48.208;11.162;2023-10-13T03:02:04;16.20;92.40
43810;DHT22;29440;48.208;11.162;2023-10-13T03:04:44;16.10;92.30
43810;DHT22;29440;48.208;11.162;2023-10-13T03:07:10;16.00;92.70
43810;DHT22;29440;48.208;11.162;2023-10-13T03:09:35;15.90;92.50
43810;DHT22;29440;48.208;11.162;2023-10-13T03:12:03;16.00;92.70
43810;DHT22;29440;48.208;11.162;2023-10-13T03:14:29;15.90;92.90
43810;DHT22;29440;48.208;11.162;2023-10-13T03:17:02;15.80;92.80
43810;DHT22;29440;48.208;11.162;2023-10-13T03:19:32;15.80;92.70
43810;DHT22;29440;48.208;11.162;2023-10-13T03:22:06;15.70;93.40
43810;DHT22;29440;48.208;11.162;2023-10-13T03:24:37;15.70;93.20
43810;DHT22;29440;48.208;11.162;2023-10-13T03:27:11;15.60;93.60
43810;DHT22;29440;48.208;11.162;2023-10-13T03:29:44;15.60;94.70
43810;DHT22;29440;48.208;11.162;2023-10-13T03:32:10;15.50;94.90
43810;DHT22;29440;48.208;11.162;2023-10-13T03:34:43;15.50;94.50
43810;DHT22;29440;48.208;11.162;2023-10-13T03:37:19;15.50;95.20
43810;DHT22;29440;48.208;11.162;2023-10-13T03:40:09;15.40;95.30
43810;DHT22;29440;48.208;11.162;2023-10-13T03:42:58;15.40;95.20
43810;DHT22;29440;48.208;11.162;2023-10-13T03:45:27;15.40;94.70
43810;DHT22;29440;48.208;11.162;2023-10-13T03:47:52;15.40;94.40
43810;DHT22;29440;48.208;11.162;2023-10-13T03:50:19;15.40;94.60
43810;DHT22;29440;48.208;11.162;2023-10-13T03:53:08;15.30;95.10
43810;DHT22;29440;48.208;11.162;2023-10-13T03:55:38;15.30;94.70
43810;DHT22;29440;48.208;11.162;2023-10-13T03:58:04;15.30;94.70
43810;DHT22;29440;48.208;11.162;2023-10-13T04:00:30;15.30;94.30
43810;DHT22;29440;48.208;11.162;2023-10-13T04:02:57;15.30;94.40
43810;DHT22;29440;48.208;11.162;2023-10-13T04:05:32;15.20;94.80
43810;DHT22;29440;48.208;11.162;2023-10-13T04:08:26;15.20;95.00
43810;DHT22;29440;48.208;11.162;2023-10-13T04:10:56;15.10;95.20
43810;DHT22;29440;48.208;11.162;2023-10-13T04:13:22;15.10;95.10
43810;DHT22;29440;48.208;11.162;2023-10-13T04:16:09;15.10;95.40
43810;DHT22;29440;48.208;11.162;2023-10-13T04:19:01;15.00;94.90
43810;DHT22;29440;48.208;11.162;2023-10-13T04:21:26;15.00;94.50
43810;DHT22;29440;48.208;11.162;2023-10-13T04:24:11;14.90;94.70
43810;DHT22;29440;48.208;11.162;2023-10-13T04:26:48;14.90;95.30
43810;DHT22;29440;48.208;11.162;2023-10-13T04:29:32;14.80;95.00
43810;DHT22;29440;48.208;11.162;2023-10-13T04:32:17;14.80;95.00
43810;DHT22;29440;48.208;11.162;2023-10-13T04:35:00;14.70;96.00
43810;DHT22;29440;48.208;11.162;2023-10-13T04:37:37;14.70;95.70
43810;DHT22;29440;48.208;11.162;2023-10-13T04:40:22;14.70;95.50
43810;DHT22;29440;48.208;11.162;2023-10-13T04:42:52;14.70;95.90
43810;DHT22;29440;48.208;11.162;2023-10-13T04:45:29;14.60;96.00
43810;DHT22;29440;48.208;11.162;2023-10-13T04:47:55;14.60;96.20
43810;DHT22;29440;48.208;11.162;2023-10-13T04:50:47;14.60;97.00
43810;DHT22;29440;48.208;11.162;2023-10-13T04:53:16;14.50;96.30
43810;DHT22;29440;48.208;11.162;2023-10-13T04:56:20;14.60;96.50
43810;DHT22;29440;48.208;11.162;2023-10-13T04:59:15;14.40;96.00
43810;DHT22;29440;48.208;11.162;2023-10-13T05:02:01;14.50;96.40
43810;DHT22;29440;48.208;11.162;2023-10-13T05:04:45;14.40;96.80
43810;DHT22;29440;48.208;11.162;2023-10-13T05:07:29;14.30;97.60
43810;DHT22;29440;48.208;11.162;2023-10-13T05:10:13;14.30;97.30
43810;DHT22;29440;48.208;11.162;2023-10-13T05:12:57;14.20;97.30
43810;DHT22;29440;48.208;11.162;2023-10-13T05:15:47;14.30;97.30
43810;DHT22;29440;48.208;11.162;2023-10-13T05:18:31;14.20;97.10
43810;DHT22;29440;48.208;11.162;2023-10-13T05:21:16;14.30;97.20
43810;DHT22;29440;48.208;11.162;2023-10-13T05:24:00;14.30;97.10
43810;DHT22;29440;48.208;11.162;2023-10-13T05:26:44;14.30;96.90
43810;DHT22;29440;48.208;11.162;2023-10-13T05:29:28;14.30;97.40
43810;DHT22;29440;48.208;11.162;2023-10-13T05:32:12;14.30;97.20
43810;DHT22;29440;48.208;11.162;2023-10-13T05:34:56;14.30;96.70
43810;DHT22;29440;48.208;11.162;2023-10-13T05:37:40;14.40;96.70
43810;DHT22;29440;48.208;11.162;2023-10-13T05:40:25;14.30;97.20
43810;DHT22;29440;48.208;11.162;2023-10-13T05:43:09;14.40;96.90
43810;DHT22;29440;48.208;11.162;2023-10-13T05:45:54;14.30;97.30
43810;DHT22;29440;48.208;11.162;2023-10-13T05:48:39;14.30;96.90
43810;DHT22;29440;48.208;11.162;2023-10-13T05:51:28;14.40;97.00
43810;DHT22;29440;48.208;11.162;2023-10-13T05:53:58;14.50;96.90
43810;DHT22;29440;48.208;11.162;2023-10-13T05:56:46;14.50;96.60
43810;DHT22;29440;48.208;11.162;2023-10-13T05:59:31;14.50;97.10
43810;DHT22;29440;48.208;11.162;2023-10-13T06:02:17;14.50;97.20
43810;DHT22;29440;48.208;11.162;2023-10-13T06:05:02;14.60;97.00
43810;DHT22;29440;48.208;11.162;2023-10-13T06:07:46;14.60;96.90
43810;DHT22;29440;48.208;11.162;2023-10-13T06:10:30;14.70;96.80
43810;DHT22;29440;48.208;11.162;2023-10-13T06:13:15;14.90;96.40
43810;DHT22;29440;48.208;11.162;2023-10-13T06:15:59;15.20;96.10
43810;DHT22;29440;48.208;11.162;2023-10-13T06:18:43;15.10;96.00
43810;DHT22;29440;48.208;11.162;2023-10-13T06:21:27;15.30;96.40
43810;DHT22;29440;48.208;11.162;2023-10-13T06:24:11;15.60;96.10
43810;DHT22;29440;48.208;11.162;2023-10-13T06:26:55;16.10;95.70
43810;DHT22;29440;48.208;11.162;2023-10-13T06:29:39;16.70;95.30
43810;DHT22;29440;48.208;11.162;2023-10-13T06:32:06;17.10;94.70
43810;DHT22;29440;48.208;11.162;2023-10-13T06:34:38;17.60;94.10
43810;DHT22;29440;48.208;11.162;2023-10-13T06:37:08;17.90;93.70
43810;DHT22;29440;48.208;11.162;2023-10-13T06:40:13;18.20;93.70
43810;DHT22;29440;48.208;11.162;2023-10-13T06:42:57;18.80;92.90
43810;DHT22;29440;48.208;11.162;2023-10-13T06:45:38;19.10;92.40
43810;DHT22;29440;48.208;11.162;2023-10-13T06:48:05;19.30;92.10
43810;DHT22;29440;48.208;11.162;2023-10-13T06:50:30;19.40;91.90
43810;DHT22;29440;48.208;11.162;2023-10-13T06:53:04;19.80;91.70
43810;DHT22;29440;48.208;11.162;2023-10-13T06:55:30;20.20;91.10
43810;DHT22;29440;48.208;11.162;2023-10-13T06:58:03;20.70;90.80
43810;DHT22;29440;48.208;11.162;2023-10-13T07:00:32;21.00;90.80
43810;DHT22;29440;48.208;11.162;2023-10-13T07:03:01;21.50;90.00
43810;DHT22;29440;48.208;11.162;2023-10-13T07:05:43;21.90;88.20
43810;DHT22;29440;48.208;11.162;2023-10-13T07:08:10;22.10;87.30
43810;DHT22;29440;48.208;11.162;2023-10-13T07:10:47;22.60;86.50
43810;DHT22;29440;48.208;11.162;2023-10-13T07:13:17;22.90;86.00
43810;DHT22;29440;48.208;11.162;2023-10-13T07:15:45;23.30;83.40
43810;DHT22;29440;48.208;11.162;2023-10-13T07:18:15;23.60;82.00
43810;DHT22;29440;48.208;11.162;2023-10-13T07:20:44;23.70;81.70
43810;DHT22;29440;48.208;11.162;2023-10-13T07:23:13;24.20;81.10
43810;DHT22;29440;48.208;11.162;2023-10-13T07:25:53;24.60;79.10
43810;DHT22;29440;48.208;11.162;2023-10-13T07:28:21;24.90;78.50
43810;DHT22;29440;48.208;11.162;2023-10-13T07:30:47;25.40;77.50
43810;DHT22;29440;48.208;11.162;2023-10-13T07:33:35;25.80;76.40
43810;DHT22;29440;48.208;11.162;2023-10-13T07:36:03;26.10;74.40
43810;DHT22;29440;48.208;11.162;2023-10-13T07:38:50;26.20;75.30
43810;DHT22;29440;48.208;11.162;2023-10-13T07:41:26;26.50;72.00
43810;DHT22;29440;48.208;11.162;2023-10-13T07:43:56;26.70;71.90
43810;DHT22;29440;48.208;11.162;2023-10-13T07:46:23;27.00;71.10
43810;DHT22;29440;48.208;11.162;2023-10-13T07:48:56;27.40;70.80
43810;DHT22;29440;48.208;11.162;2023-10-13T07:51:34;27.70;69.50
43810;DHT22;29440;48.208;11.162;2023-10-13T07:54:10;27.90;68.30
43810;DHT22;29440;48.208;11.162;2023-10-13T07:56:38;27.60;67.60
43810;DHT22;29440;48.208;11.162;2023-10-13T07:59:05;27.20;66.90
43810;DHT22;29440;48.208;11.162;2023-10-13T08:01:34;27.10;66.90
43810;DHT22;29440;48.208;11.162;2023-10-13T08:04:00;27.40;66.10
43810;DHT22;29440;48.208;11.162;2023-10-13T08:06:37;27.50;66.40
43810;DHT22;29440;48.208;11.162;2023-10-13T08:09:09;27.50;64.90
43810;DHT22;29440;48.208;11.162;2023-10-13T08:11:36;27.70;64.90
43810;DHT22;29440;48.208;11.162;2023-10-13T08:14:03;27.30;64.60
43810;DHT22;29440;48.208;11.162;2023-10-13T08:16:48;27.40;65.40
43810;DHT22;29440;48.208;11.162;2023-10-13T08:19:19;27.50;63.80
43810;DHT22;29440;48.208;11.162;2023-10-13T08:21:46;27.60;64.60
43810;DHT22;29440;48.208;11.162;2023-10-13T08:24:17;27.70;64.60
43810;DHT22;29440;48.208;11.162;2023-10-13T08:26:51;27.90;61.40
43810;DHT22;29440;48.208;11.162;2023-10-13T08:29:43;28.10;62.00
43810;DHT22;29440;48.208;11.162;2023-10-13T08:32:30;28.30;61.00
43810;DHT22;29440;48.208;11.162;2023-10-13T08:34:57;28.40;61.40
43810;DHT22;29440;48.208;11.162;2023-10-13T08:37:23;28.60;59.90
43810;DHT22;29440;48.208;11.162;2023-10-13T08:39:50;28.50;61.20
43810;DHT22;29440;48.208;11.162;2023-10-13T08:42:37;28.50;60.70
43810;DHT22;29440;48.208;11.162;2023-10-13T08:47:48;28.40;59.90
43810;DHT22;29440;48.208;11.162;2023-10-13T08:50:21;28.50;59.20
43810;DHT22;29440;48.208;11.162;2023-10-13T08:53:08;28.00;58.50
43810;DHT22;29440;48.208;11.162;2023-10-13T08:55:56;27.80;59.70
43810;DHT22;29440;48.208;11.162;2023-10-13T08:58:31;27.60;60.60
43810;DHT22;29440;48.208;11.162;2023-10-13T09:01:16;27.40;60.80
43810;DHT22;29440;48.208;11.162;2023-10-13T09:04:16;27.40;61.50
43810;DHT22;29440;48.208;11.162;2023-10-13T09:09:29;27.30;62.90
43810;DHT22;29440;48.208;11.162;2023-10-13T09:12:29;27.40;62.70
43810;DHT22;29440;48.208;11.162;2023-10-13T09:15:02;27.20;61.00
43810;DHT22;29440;48.208;11.162;2023-10-13T09:17:47;27.20;61.80
43810;DHT22;29440;48.208;11.162;2023-10-13T09:20:38;27.10;60.60
43810;DHT22;29440;48.208;11.162;2023-10-13T09:23:08;27.00;60.00
43810;DHT22;29440;48.208;11.162;2023-10-13T09:25:39;26.70;60.30
43810;DHT22;29440;48.208;11.162;2023-10-13T09:28:27;26.60;61.90
43810;DHT22;29440;48.208;11.162;2023-10-13T09:30:54;26.50;62.10
43810;DHT22;29440;48.208;11.162;2023-10-13T09:33:29;26.40;63.40
43810;DHT22;29440;48.208;11.162;2023-10-13T09:36:04;26.40;64.20
43810;DHT22;29440;48.208;11.162;2023-10-13T09:38:32;26.40;62.90
43810;DHT22;29440;48.208;11.162;2023-10-13T09:40:58;26.30;63.10
43810;DHT22;29440;48.208;11.162;2023-10-13T09:43:27;26.30;62.60
43810;DHT22;29440;48.208;11.162;2023-10-13T09:46:00;26.60;63.60
43810;DHT22;29440;48.208;11.162;2023-10-13T09:48:34;26.60;66.60
43810;DHT22;29440;48.208;11.162;2023-10-13T09:51:04;26.60;64.40
43810;DHT22;29440;48.208;11.162;2023-10-13T09:53:35;26.70;62.80
43810;DHT22;29440;48.208;11.162;2023-10-13T09:56:25;26.80;63.90
43810;DHT22;29440;48.208;11.162;2023-10-13T09:59:08;26.80;62.40
43810;DHT22;29440;48.208;11.162;2023-10-13T10:01:41;26.70;61.30
43810;DHT22;29440;48.208;11.162;2023-10-13T10:04:18;26.70;61.60
43810;DHT22;29440;48.208;11.162;2023-10-13T10:06:57;26.70;61.50
43810;DHT22;29440;48.208;11.162;2023-10-13T10:15:28;26.70;61.10
43810;DHT22;29440;48.208;11.162;2023-10-13T10:18:00;26.70;63.30
43810;DHT22;29440;48.208;11.162;2023-10-13T10:20:34;26.80;63.90
43810;DHT22;29440;48.208;11.162;2023-10-13T10:23:12;26.80;61.20
43810;DHT22;29440;48.208;11.162;2023-10-13T10:25:48;27.00;62.70
43810;DHT22;29440;48.208;11.162;2023-10-13T10:28:15;26.90;60.20
43810;DHT22;29440;48.208;11.162;2023-10-13T10:30:41;27.00;60.40
43810;DHT22;29440;48.208;11.162;2023-10-13T10:33:09;27.00;61.80
43810;DHT22;29440;48.208;11.162;2023-10-13T10:35:42;27.10;60.70
43810;DHT22;29440;48.208;11.162;2023-10-13T10:41:02;27.30;61.20
43810;DHT22;29440;48.208;11.162;2023-10-13T10:43:37;27.30;62.30
43810;DHT22;29440;48.208;11.162;2023-10-13T10:48:37;27.40;61.70
43810;DHT22;29440;48.208;11.162;2023-10-13T10:51:15;27.50;62.60
43810;DHT22;29440;48.208;11.162;2023-10-13T10:53:50;27.50;60.80
43810;DHT22;29440;48.208;11.162;2023-10-13T10:56:18;27.80;65.40
43810;DHT22;29440;48.208;11.162;2023-10-13T10:58:57;27.80;65.50
43810;DHT22;29440;48.208;11.162;2023-10-13T11:01:25;28.00;59.50
43810;DHT22;29440;48.208;11.162;2023-10-13T11:04:00;28.10;58.30
43810;DHT22;29440;48.208;11.162;2023-10-13T11:06:49;28.20;58.30
43810;DHT22;29440;48.208;11.162;2023-10-13T11:09:15;28.30;58.00
43810;DHT22;29440;48.208;11.162;2023-10-13T11:11:51;28.50;56.70
43810;DHT22;29440;48.208;11.162;2023-10-13T11:14:23;28.50;56.00
43810;DHT22;29440;48.208;11.162;2023-10-13T11:16:52;28.50;54.50
43810;DHT22;29440;48.208;11.162;2023-10-13T11:19:40;28.50;54.30
43810;DHT22;29440;48.208;11.162;2023-10-13T11:22:17;28.50;54.30
43810;DHT22;29440;48.208;11.162;2023-10-13T11:25:03;28.50;55.60
43810;DHT22;29440;48.208;11.162;2023-10-13T11:27:35;28.60;55.50
43810;DHT22;29440;48.208;11.162;2023-10-13T11:30:26;28.60;55.60
43810;DHT22;29440;48.208;11.162;2023-10-13T11:33:04;28.70;54.70
43810;DHT22;29440;48.208;11.162;2023-10-13T11:35:39;28.60;53.50
43810;DHT22;29440;48.208;11.162;2023-10-13T11:38:15;28.60;55.10
43810;DHT22;29440;48.208;11.162;2023-10-13T11:40:50;28.70;56.30
43810;DHT22;29440;48.208;11.162;2023-10-13T11:43:34;28.70;54.70
43810;DHT22;29440;48.208;11.162;2023-10-13T11:46:11;28.70;55.70
43810;DHT22;29440;48.208;11.162;2023-10-13T11:48:37;28.80;58.10
43810;DHT22;29440;48.208;11.162;2023-10-13T11:51:04;29.00;55.60
43810;DHT22;29440;48.208;11.162;2023-10-13T11:53:37;28.90;55.10
43810;DHT22;29440;48.208;11.162;2023-10-13T11:56:03;29.00;55.70
43810;DHT22;29440;48.208;11.162;2023-10-13T11:58:36;28.90;55.50
43810;DHT22;29440;48.208;11.162;2023-10-13T12:01:02;28.90;54.90
43810;DHT22;29440;48.208;11.162;2023-10-13T12:03:44;28.90;54.60
43810;DHT22;29440;48.208;11.162;2023-10-13T12:06:30;28.90;56.20
43810;DHT22;29440;48.208;11.162;2023-10-13T12:09:09;29.00;57.40
43810;DHT22;29440;48.208;11.162;2023-10-13T12:11:41;29.10;55.60
43810;DHT22;29440;48.208;11.162;2023-10-13T12:14:14;29.20;55.00
43810;DHT22;29440;48.208;11.162;2023-10-13T12:16:47;29.10;52.40
43810;DHT22;29440;48.208;11.162;2023-10-13T12:19:25;29.10;53.00
43810;DHT22;29440;48.208;11.162;2023-10-13T12:21:53;29.20;54.90
43810;DHT22;29440;48.208;11.162;2023-10-13T12:24:20;29.10;53.80
43810;DHT22;29440;48.208;11.162;2023-10-13T12:27:02;29.20;55.50
43810;DHT22;29440;48.208;11.162;2023-10-13T12:29:28;29.20;54.50
43810;DHT22;29440;48.208;11.162;2023-10-13T12:31:55;29.30;55.10
43810;DHT22;29440;48.208;11.162;2023-10-13T12:34:34;29.30;53.70
43810;DHT22;29440;48.208;11.162;2023-10-13T12:37:18;29.30;56.80
43810;DHT22;29440;48.208;11.162;2023-10-13T12:40:12;29.20;52.60
43810;DHT22;29440;48.208;11.162;2023-10-13T12:42:57;29.30;55.40
43810;DHT22;29440;48.208;11.162;2023-10-13T12:45:42;29.40;55.20
43810;DHT22;29440;48.208;11.162;2023-10-13T12:48:27;29.20;52.30
43810;DHT22;29440;48.208;11.162;2023-10-13T12:51:11;29.20;53.80
43810;DHT22;29440;48.208;11.162;2023-10-13T12:56:13;29.20;54.00
43810;DHT22;29440;48.208;11.162;2023-10-13T12:58:39;29.20;52.00
43810;DHT22;29440;48.208;11.162;2023-10-13T13:01:04;29.20;53.70
43810;DHT22;29440;48.208;11.162;2023-10-13T13:03:33;29.20;52.00
43810;DHT22;29440;48.208;11.162;2023-10-13T13:05:59;29.20;52.90
43810;DHT22;29440;48.208;11.162;2023-10-13T13:08:28;29.10;52.80
43810;DHT22;29440;48.208;11.162;2023-10-13T13:11:00;29.20;54.00
43810;DHT22;29440;48.208;11.162;2023-10-13T13:13:26;29.20;53.20
43810;DHT22;29440;48.208;11.162;2023-10-13T13:15:52;29.20;53.90
43810;DHT22;29440;48.208;11.162;2023-10-13T13:18:18;29.20;56.60
43810;DHT22;29440;48.208;11.162;2023-10-13T13:20:44;29.20;55.00
43810;DHT22;29440;48.208;11.162;2023-10-13T13:23:21;29.20;54.00
43810;DHT22;29440;48.208;11.162;2023-10-13T13:25:51;29.20;52.70
43810;DHT22;29440;48.208;11.162;2023-10-13T13:28:17;29.30;53.90
43810;DHT22;29440;48.208;11.162;2023-10-13T13:30:44;29.10;53.80
43810;DHT22;29440;48.208;11.162;2023-10-13T13:33:11;29.10;54.50
43810;DHT22;29440;48.208;11.162;2023-10-13T13:35:39;29.10;54.10
43810;DHT22;29440;48.208;11.162;2023-10-13T13:38:08;29.10;54.80
43810;DHT22;29440;48.208;11.162;2023-10-13T13:40:48;29.10;54.50
43810;DHT22;29440;48.208;11.162;2023-10-13T13:43:22;29.20;54.60
43810;DHT22;29440;48.208;11.162;2023-10-13T13:46:04;29.20;53.90
43810;DHT22;29440;48.208;11.162;2023-10-13T13:48:38;29.20;54.00
43810;DHT22;29440;48.208;11.162;2023-10-13T13:51:07;29.20;52.80
43810;DHT22;29440;48.208;11.162;2023-10-13T13:53:42;29.20;54.40
43810;DHT22;29440;48.208;11.162;2023-10-13T13:56:11;29.10;51.60
43810;DHT22;29440;48.208;11.162;2023-10-13T13:58:47;29.10;53.60
43810;DHT22;29440;48.208;11.162;2023-10-13T14:01:14;29.00;50.80
43810;DHT22;29440;48.208;11.162;2023-10-13T14:03:42;29.00;54.20
43810;DHT22;29440;48.208;11.162;2023-10-13T14:06:21;28.90;52.40
43810;DHT22;29440;48.208;11.162;2023-10-13T14:08:53;28.90;54.40
43810;DHT22;29440;48.208;11.162;2023-10-13T14:11:24;28.90;54.70
43810;DHT22;29440;48.208;11.162;2023-10-13T14:14:10;28.80;54.10
43810;DHT22;29440;48.208;11.162;2023-10-13T14:16:40;28.80;55.00
43810;DHT22;29440;48.208;11.162;2023-10-13T14:19:11;28.70;54.90
43810;DHT22;29440;48.208;11.162;2023-10-13T14:21:37;28.70;54.60
43810;DHT22;29440;48.208;11.162;2023-10-13T14:24:03;28.60;54.80
43810;DHT22;29440;48.208;11.162;2023-10-13T14:26:38;28.60;55.60
43810;DHT22;29440;48.208;11.162;2023-10-13T14:29:03;28.60;53.60
43810;DHT22;29440;48.208;11.162;2023-10-13T14:31:34;28.50;55.40
43810;DHT22;29440;48.208;11.162;2023-10-13T14:34:01;28.50;55.30
43810;DHT22;29440;48.208;11.162;2023-10-13T14:36:27;28.60;56.70
43810;DHT22;29440;48.208;11.162;2023-10-13T14:39:00;28.40;56.10
43810;DHT22;29440;48.208;11.162;2023-10-13T14:41:26;28.40;54.50
43810;DHT22;29440;48.208;11.162;2023-10-13T14:43:51;28.30;54.30
43810;DHT22;29440;48.208;11.162;2023-10-13T14:46:23;28.30;55.20
43810;DHT22;29440;48.208;11.162;2023-10-13T14:48:52;28.10;54.20
43810;DHT22;29440;48.208;11.162;2023-10-13T14:51:18;28.10;55.40
43810;DHT22;29440;48.208;11.162;2023-10-13T14:53:44;28.10;55.50
43810;DHT22;29440;48.208;11.162;2023-10-13T14:56:14;28.00;55.90
43810;DHT22;29440;48.208;11.162;2023-10-13T14:58:41;27.90;56.70
43810;DHT22;29440;48.208;11.162;2023-10-13T15:01:13;27.90;56.50
43810;DHT22;29440;48.208;11.162;2023-10-13T15:03:49;27.70;56.30
43810;DHT22;29440;48.208;11.162;2023-10-13T15:06:23;27.80;57.10
43810;DHT22;29440;48.208;11.162;2023-10-13T15:08:57;27.70;57.20
43810;DHT22;29440;48.208;11.162;2023-10-13T15:11:24;27.70;57.00
43810;DHT22;29440;48.208;11.162;2023-10-13T15:13:53;27.70;56.40
43810;DHT22;29440;48.208;11.162;2023-10-13T15:16:20;27.60;56.80
43810;DHT22;29440;48.208;11.162;2023-10-13T15:18:51;27.50;57.50
43810;DHT22;29440;48.208;11.162;2023-10-13T15:21:28;27.40;58.00
43810;DHT22;29440;48.208;11.162;2023-10-13T15:24:03;27.30;58.70
43810;DHT22;29440;48.208;11.162;2023-10-13T15:26:41;27.20;58.00
43810;DHT22;29440;48.208;11.162;2023-10-13T15:29:18;27.10;58.80
43810;DHT22;29440;48.208;11.162;2023-10-13T15:31:51;27.10;59.20
43810;DHT22;29440;48.208;11.162;2023-10-13T15:34:26;26.90;58.50
43810;DHT22;29440;48.208;11.162;2023-10-13T15:36:53;26.90;58.80
43810;DHT22;29440;48.208;11.162;2023-10-13T15:39:24;26.80;58.90
43810;DHT22;29440;48.208;11.162;2023-10-13T15:41:53;26.70;59.00
43810;DHT22;29440;48.208;11.162;2023-10-13T15:44:20;26.60;59.60
43810;DHT22;29440;48.208;11.162;2023-10-13T15:46:47;26.60;59.80
43810;DHT22;29440;48.208;11.162;2023-10-13T15:49:15;26.40;60.70
43810;DHT22;29440;48.208;11.162;2023-10-13T15:51:41;26.40;59.90
43810;DHT22;29440;48.208;11.162;2023-10-13T15:54:07;26.30;60.30
43810;DHT22;29440;48.208;11.162;2023-10-13T15:56:42;26.10;61.10
43810;DHT22;29440;48.208;11.162;2023-10-13T15:59:09;26.10;61.20
43810;DHT22;29440;48.208;11.162;2023-10-13T16:01:35;26.00;61.60
43810;DHT22;29440;48.208;11.162;2023-10-13T16:04:01;25.90;62.40
43810;DHT22;29440;48.208;11.162;2023-10-13T16:06:37;25.80;62.40
43810;DHT22;29440;48.208;11.162;2023-10-13T16:09:02;25.70;62.90
43810;DHT22;29440;48.208;11.162;2023-10-13T16:11:29;25.60;63.30
43810;DHT22;29440;48.208;11.162;2023-10-13T16:13:54;25.60;63.50
43810;DHT22;29440;48.208;11.162;2023-10-13T16:16:23;25.40;63.90